KPOE

Polk AAF Airport

Fort Polk, Louisiana, USA
METAR KPOE 211358Z AUTO 26005KT 10SM CLR 26/22 A3003 RMK AO2 SLP168 T02580222
Observed Flight Rules
May-21 @ 13:58 UTC (54 minutes ago) Visual Flight Rules
Wind Visibility Clouds
260° at 5 knots 10 miles
  • Clear skies
Temperatures Readings
Current 26°C / 79°F
Dewpoint 22°C / 72°F
Humidity 79%
Altimeter 30.03" Hg
Pressure 1016.8 hPa
Elevation 101
METAR KPOE 211358Z AUTO 26005KT 10SM CLR 26/22 A3003 RMK AO2 SLP168 T02580222
Observed Flight Rules
May-21 @ 13:58 UTC
(54 minutes ago)
VFR
Wind Visibility
260° at 5 knots 10 miles
Clouds
  • Clear skies
Temperature Dewpoint
26°C / 79°F 22°C / 72°F
Humidity Altimeter Pressure
79% 30.03" Hg 1016.8 hPa